createdAt,value
2018-06-19T00:02:26.878Z,3.10
2018-06-19T00:04:55.913Z,3.73
2018-06-19T00:07:25.749Z,3.20
2018-06-19T00:09:55.534Z,4.13
2018-06-19T00:12:24.728Z,3.60
2018-06-19T00:14:55.803Z,3.67
2018-06-19T00:17:26.026Z,3.63
2018-06-19T00:19:55.521Z,3.53
2018-06-19T00:22:24.934Z,3.53
2018-06-19T00:24:54.431Z,4.40
2018-06-19T00:27:23.637Z,3.43
2018-06-19T00:29:52.694Z,3.43
2018-06-19T00:32:22.739Z,3.37
2018-06-19T00:34:52.177Z,4.10
2018-06-19T00:37:20.933Z,3.87
2018-06-19T00:39:49.736Z,3.73
2018-06-19T00:42:18.540Z,3.70
2018-06-19T00:44:47.834Z,4.03
2018-06-19T00:47:16.595Z,3.53
2018-06-19T00:49:45.534Z,3.80
2018-06-19T00:52:15.310Z,4.00
2018-06-19T00:54:44.179Z,5.03
2018-06-19T00:57:13.682Z,3.97
2018-06-19T00:59:42.454Z,4.27
2018-06-19T01:02:11.194Z,3.67
2018-06-19T01:04:41.086Z,4.17
2018-06-19T01:07:10.547Z,3.50
2018-06-19T01:09:39.930Z,4.10
2018-06-19T01:12:08.674Z,3.53
2018-06-19T01:14:39.153Z,3.63
2018-06-19T01:17:08.738Z,3.60
2018-06-19T01:19:37.534Z,3.73
2018-06-19T01:22:06.862Z,4.03
2018-06-19T01:24:35.684Z,3.90
2018-06-19T01:27:04.659Z,4.40
2018-06-19T01:29:34.246Z,3.80
2018-06-19T01:32:03.861Z,4.03
2018-06-19T01:34:33.149Z,3.50
2018-06-19T01:37:02.570Z,4.43
2018-06-19T01:39:31.516Z,4.20
2018-06-19T01:42:00.233Z,4.07
2018-06-19T01:44:29.555Z,3.73
2018-06-19T01:46:58.344Z,3.77
2018-06-19T01:49:27.088Z,3.70
2018-06-19T01:51:56.785Z,4.47
2018-06-19T01:54:25.835Z,3.70
2018-06-19T01:56:55.886Z,4.33
2018-06-19T01:59:25.095Z,3.83
2018-06-19T02:01:54.299Z,3.97
2018-06-19T02:04:24.376Z,3.80
2018-06-19T02:06:54.236Z,5.00
2018-06-19T02:09:23.218Z,4.00
2018-06-19T02:11:53.054Z,4.47
2018-06-19T02:14:23.205Z,3.77
2018-06-19T02:16:53.006Z,4.50
2018-06-19T02:19:22.256Z,4.20
2018-06-19T02:21:52.594Z,5.03
2018-06-19T02:24:21.682Z,3.93
2018-06-19T02:26:50.453Z,5.00
2018-06-19T02:29:19.837Z,4.33
2018-06-19T02:31:48.575Z,4.43
2018-06-19T02:34:18.048Z,3.90
2018-06-19T02:36:48.402Z,4.57
2018-06-19T02:39:17.139Z,3.90
2018-06-19T02:41:45.985Z,4.47
2018-06-19T02:44:14.719Z,3.80
2018-06-19T02:46:44.020Z,4.60
2018-06-19T02:49:12.937Z,3.20
2018-06-19T02:51:42.546Z,3.53
2018-06-19T02:54:12.153Z,3.60
2018-06-19T02:56:40.911Z,3.73
2018-06-19T02:59:09.646Z,3.27
2018-06-19T03:01:38.454Z,3.57
2018-06-19T03:04:08.196Z,3.07
2018-06-19T03:06:37.516Z,3.03
2018-06-19T03:09:08.617Z,3.00
2018-06-19T03:11:38.318Z,3.30
2018-06-19T03:14:08.122Z,3.13
2018-06-19T03:16:37.421Z,3.10
2018-06-19T03:19:06.238Z,3.30
2018-06-19T03:21:36.035Z,2.80
2018-06-19T03:24:05.790Z,3.50
2018-06-19T03:26:34.770Z,2.73
2018-06-19T03:29:03.702Z,2.87
2018-06-19T03:31:33.798Z,2.90
2018-06-19T03:34:03.287Z,3.63
2018-06-19T03:36:32.559Z,2.40
2018-06-19T03:39:01.323Z,3.33
2018-06-19T03:41:30.346Z,2.83
2018-06-19T03:43:59.123Z,3.47
2018-06-19T03:46:27.978Z,2.63
2018-06-19T03:48:56.852Z,3.53
2018-06-19T03:51:26.306Z,2.53
2018-06-19T03:53:55.214Z,3.10
2018-06-19T03:56:24.362Z,2.57
2018-06-19T03:58:53.574Z,3.20
2018-06-19T04:01:22.895Z,2.13
2018-06-19T04:03:52.873Z,3.20
2018-06-19T04:06:23.225Z,2.80
2018-06-19T04:08:52.025Z,3.17
2018-06-19T04:11:21.914Z,3.57
2018-06-19T04:13:51.459Z,2.80
2018-06-19T04:16:21.449Z,3.53
2018-06-19T04:18:50.219Z,2.40
2018-06-19T04:21:19.662Z,2.80
2018-06-19T04:23:49.061Z,2.80
2018-06-19T04:26:19.018Z,3.53
2018-06-19T04:28:48.245Z,2.30
2018-06-19T04:31:17.726Z,2.80
2018-06-19T04:33:47.070Z,2.37
2018-06-19T04:36:15.888Z,4.17
2018-06-19T04:38:44.623Z,2.50
2018-06-19T04:41:13.402Z,3.23
2018-06-19T04:43:42.186Z,2.57
2018-06-19T04:46:11.413Z,3.43
2018-06-19T04:48:40.843Z,3.03
2018-06-19T04:51:11.298Z,3.53
2018-06-19T04:53:40.108Z,3.03
2018-06-19T04:56:09.219Z,3.00
2018-06-19T04:58:37.992Z,2.67
2018-06-19T05:01:06.986Z,3.43
2018-06-19T05:03:35.884Z,3.13
2018-06-19T05:06:05.970Z,2.50
2018-06-19T05:08:34.929Z,3.30
2018-06-19T05:11:04.418Z,2.63
2018-06-19T05:13:34.136Z,2.93
2018-06-19T05:16:05.353Z,2.87
2018-06-19T05:18:34.217Z,3.13
2018-06-19T05:21:04.127Z,2.80
2018-06-19T05:23:33.869Z,3.20
2018-06-19T05:26:03.016Z,3.43
2018-06-19T05:28:31.993Z,3.50
2018-06-19T05:31:01.574Z,3.10
2018-06-19T05:33:30.811Z,2.90
2018-06-19T05:35:59.530Z,3.17
2018-06-19T05:38:28.274Z,4.10
2018-06-19T05:40:57.055Z,3.47
2018-06-19T05:43:26.539Z,3.33
2018-06-19T05:45:56.365Z,3.27
2018-06-19T05:48:25.549Z,3.00
2018-06-19T05:50:55.954Z,3.20
2018-06-19T05:53:25.070Z,3.57
2018-06-19T05:55:54.200Z,3.17
2018-06-19T05:58:23.237Z,3.27
2018-06-19T06:00:51.962Z,2.97
2018-06-19T06:03:21.604Z,2.97
2018-06-19T06:05:50.913Z,2.83
2018-06-19T06:08:19.587Z,3.13
2018-06-19T06:10:49.148Z,2.90
2018-06-19T06:13:18.441Z,2.67
2018-06-19T06:15:47.967Z,3.03
2018-06-19T06:18:16.742Z,3.50
2018-06-19T06:20:46.486Z,2.83
2018-06-19T06:23:15.930Z,2.63
2018-06-19T06:25:44.782Z,2.87
2018-06-19T06:28:13.532Z,3.10
2018-06-19T06:30:42.802Z,2.53
2018-06-19T06:33:12.310Z,4.10
2018-06-19T06:35:41.063Z,3.10
2018-06-19T06:38:09.827Z,2.97
2018-06-19T06:40:38.605Z,2.77
2018-06-19T06:43:08.042Z,3.23
2018-06-19T06:45:36.859Z,3.20
2018-06-19T06:48:05.688Z,2.87
2018-06-19T06:50:35.367Z,2.97
2018-06-19T06:53:04.510Z,2.80
2018-06-19T06:55:33.500Z,3.20
2018-06-19T06:58:02.492Z,2.43
2018-06-19T07:00:31.428Z,3.20
2018-06-19T07:03:00.434Z,2.70
2018-06-19T07:05:30.186Z,3.30
2018-06-19T07:07:58.974Z,2.80
2018-06-19T07:10:28.785Z,3.07
2018-06-19T07:12:58.893Z,3.10
2018-06-19T07:15:28.923Z,3.43
2018-06-19T07:17:58.058Z,2.53
2018-06-19T07:20:27.215Z,3.03
2018-06-19T07:22:57.153Z,2.93
2018-06-19T07:25:26.161Z,3.57
2018-06-19T07:27:55.189Z,2.33
2018-06-19T07:30:24.405Z,2.80
2018-06-19T07:32:54.143Z,3.37
2018-06-19T07:35:22.974Z,3.60
2018-06-19T07:37:51.824Z,2.80
2018-06-19T07:40:21.530Z,3.10
2018-06-19T07:42:50.293Z,2.93
2018-06-19T07:45:19.469Z,3.50
2018-06-19T07:47:48.283Z,3.13
2018-06-19T07:50:17.069Z,3.00
2018-06-19T07:52:46.705Z,3.17
2018-06-19T07:55:15.984Z,3.40
2018-06-19T07:57:44.769Z,3.60
2018-06-19T08:00:13.564Z,3.50
2018-06-19T08:02:42.362Z,3.23
2018-06-19T08:05:11.206Z,3.20
2018-06-19T08:07:40.733Z,2.77
2018-06-19T08:10:10.149Z,2.93
2018-06-19T08:12:39.590Z,3.03
2018-06-19T08:15:10.140Z,3.00
2018-06-19T08:17:38.931Z,3.37
2018-06-19T08:20:07.727Z,3.00
2018-06-19T08:22:37.369Z,3.00
2018-06-19T08:25:06.149Z,2.97
2018-06-19T08:27:34.918Z,3.30
2018-06-19T08:30:04.578Z,2.13
2018-06-19T08:32:34.466Z,2.90
2018-06-19T08:35:03.427Z,2.60
2018-06-19T08:37:32.386Z,3.47
2018-06-19T08:40:01.992Z,2.10
2018-06-19T08:42:30.816Z,2.43
2018-06-19T08:44:59.686Z,2.00
2018-06-19T08:47:28.816Z,2.80
2018-06-19T08:49:57.942Z,2.57
2018-06-19T08:52:27.956Z,2.50
2018-06-19T08:54:57.074Z,2.20
2018-06-19T08:57:25.879Z,2.60
2018-06-19T08:59:54.778Z,2.53
2018-06-19T09:02:23.567Z,3.87
2018-06-19T09:04:52.917Z,2.40
2018-06-19T09:07:23.567Z,2.47
2018-06-19T09:09:53.053Z,2.83
2018-06-19T09:12:21.852Z,2.53
2018-06-19T09:14:51.761Z,2.20
2018-06-19T09:17:21.437Z,4.00
2018-06-19T09:19:50.221Z,2.17
2018-06-19T09:22:20.510Z,2.60
2018-06-19T09:24:49.318Z,2.03
2018-06-19T09:27:18.126Z,2.77
2018-06-19T09:29:48.019Z,2.37
2018-06-19T09:32:16.829Z,2.30
2018-06-19T09:34:45.586Z,3.00
2018-06-19T09:37:14.910Z,2.90
2018-06-19T09:39:43.682Z,2.53
2018-06-19T09:42:12.515Z,2.60
2018-06-19T09:44:41.298Z,2.80
2018-06-19T09:47:10.150Z,2.57
2018-06-19T09:49:39.688Z,2.87
2018-06-19T09:52:09.731Z,2.57
2018-06-19T09:54:38.659Z,2.47
2018-06-19T09:57:07.527Z,2.97
2018-06-19T09:59:36.430Z,2.50
2018-06-19T10:02:05.993Z,2.33
2018-06-19T10:04:34.944Z,2.50
2018-06-19T10:07:04.537Z,3.07
2018-06-19T10:09:34.411Z,2.50
2018-06-19T10:12:03.443Z,1.97
2018-06-19T10:14:33.143Z,2.50
2018-06-19T10:17:02.822Z,2.23
2018-06-19T10:19:31.679Z,4.13
2018-06-19T10:22:01.158Z,2.37
2018-06-19T10:24:29.914Z,2.60
2018-06-19T10:26:59.370Z,2.10
2018-06-19T10:29:29.226Z,2.70
2018-06-19T10:31:58.946Z,2.53
2018-06-19T10:34:28.596Z,2.17
2018-06-19T10:36:57.663Z,2.73
2018-06-19T10:39:26.842Z,2.80
2018-06-19T10:41:55.650Z,2.80
2018-06-19T10:44:24.403Z,2.70
2018-06-19T10:46:53.495Z,2.53
2018-06-19T10:49:23.695Z,2.20
2018-06-19T10:51:53.336Z,2.40
2018-06-19T10:54:22.129Z,2.50
2018-06-19T10:56:50.866Z,1.87
2018-06-19T10:59:19.924Z,2.13
2018-06-19T11:01:48.673Z,1.87
2018-06-19T11:04:17.689Z,2.03
2018-06-19T11:06:47.297Z,2.43
2018-06-19T11:09:16.075Z,1.90
2018-06-19T11:11:45.587Z,2.37
2018-06-19T11:14:15.281Z,2.63
2018-06-19T11:16:44.567Z,2.73
2018-06-19T11:19:13.342Z,1.90
2018-06-19T11:21:43.034Z,2.10
2018-06-19T11:24:12.246Z,2.03
2018-06-19T11:26:41.066Z,2.47
2018-06-19T11:29:11.093Z,1.80
2018-06-19T11:31:40.603Z,2.37
2018-06-19T11:34:09.402Z,1.90
2018-06-19T11:36:38.212Z,2.57
2018-06-19T11:39:11.822Z,2.40
2018-06-19T11:41:40.765Z,2.47
2018-06-19T11:44:09.570Z,2.03
2018-06-19T11:46:38.399Z,2.47
2018-06-19T11:49:08.822Z,2.37
2018-06-19T11:51:38.183Z,2.37
2018-06-19T11:54:07.000Z,2.07
2018-06-19T11:56:35.749Z,2.37
2018-06-19T11:59:04.666Z,2.13
2018-06-19T12:01:34.264Z,2.30
2018-06-19T12:04:03.100Z,1.77
2018-06-19T12:06:32.879Z,2.17
2018-06-19T12:09:01.991Z,1.73
2018-06-19T12:11:31.412Z,2.47
2018-06-19T12:14:01.176Z,2.50
2018-06-19T12:16:30.574Z,2.00
2018-06-19T12:18:59.572Z,1.50
2018-06-19T12:21:29.374Z,1.97
2018-06-19T12:23:59.494Z,1.80
2018-06-19T12:26:29.719Z,2.20
2018-06-19T12:28:59.737Z,1.93
2018-06-19T12:31:29.475Z,1.90
2018-06-19T12:33:58.578Z,1.70
2018-06-19T12:36:27.821Z,2.47
2018-06-19T12:38:56.924Z,1.90
2018-06-19T12:41:35.632Z,2.30
2018-06-19T12:44:05.507Z,1.70
2018-06-19T12:46:34.793Z,2.20
2018-06-19T12:49:04.782Z,1.40
2018-06-19T12:51:51.773Z,2.93
2018-06-19T12:54:31.473Z,2.33
2018-06-19T12:57:00.289Z,1.40
2018-06-19T12:59:29.155Z,2.20
2018-06-19T13:01:58.566Z,1.40
2018-06-19T13:04:38.335Z,2.20
2018-06-19T13:07:08.401Z,1.60
2018-06-19T13:09:38.695Z,1.83
2018-06-19T13:13:15.999Z,1.60
2018-06-19T13:15:45.730Z,1.53
2018-06-19T13:18:25.424Z,1.97
2018-06-19T13:20:55.492Z,1.30
2018-06-19T13:23:24.929Z,2.33
2018-06-19T13:25:53.683Z,1.40
2018-06-19T13:28:33.560Z,2.23
2018-06-19T13:31:14.100Z,1.37
2018-06-19T13:33:42.909Z,1.20
2018-06-19T13:36:11.655Z,1.53
2018-06-19T13:38:40.987Z,1.20
2018-06-19T13:41:22.816Z,1.30
2018-06-19T13:44:04.303Z,1.17
2018-06-19T13:46:33.330Z,1.43
2018-06-19T13:49:03.845Z,1.23
2018-06-19T13:51:33.601Z,1.50
2018-06-19T13:54:02.622Z,1.50
2018-06-19T13:57:41.734Z,1.97
2018-06-19T14:00:12.540Z,1.40
2018-06-19T14:02:41.447Z,1.70
2018-06-19T14:05:10.870Z,2.10
2018-06-19T14:08:05.075Z,1.13
2018-06-19T14:10:46.106Z,1.60
2018-06-19T14:13:15.630Z,1.53
2018-06-19T14:15:48.899Z,1.63
2018-06-19T14:18:18.702Z,1.70
2018-06-19T14:20:48.712Z,1.40
2018-06-19T14:23:18.794Z,2.10
2018-06-19T14:25:48.190Z,1.60
2018-06-19T14:28:16.960Z,2.20
2018-06-19T14:30:46.669Z,1.40
2018-06-19T14:33:15.632Z,2.13
2018-06-19T14:35:44.437Z,1.20
2018-06-19T14:38:13.262Z,1.87
2018-06-19T14:40:43.184Z,1.17
2018-06-19T14:43:12.346Z,2.20
2018-06-19T14:45:41.098Z,1.60
2018-06-19T14:48:10.765Z,1.80
2018-06-19T14:50:40.291Z,1.37
2018-06-19T14:53:09.169Z,2.40
2018-06-19T14:55:37.934Z,1.40
2018-06-19T14:58:08.310Z,2.03
2018-06-19T15:00:37.084Z,1.63
2018-06-19T15:03:06.223Z,1.43
2018-06-19T15:05:35.842Z,2.13
2018-06-19T15:08:11.162Z,2.03
2018-06-19T15:10:40.520Z,1.90
2018-06-19T15:13:10.282Z,1.90
2018-06-19T15:15:39.902Z,2.03
2018-06-19T15:18:08.662Z,2.30
2018-06-19T15:20:37.477Z,2.30
2018-06-19T15:23:07.380Z,1.83
2018-06-19T15:25:36.199Z,2.40
2018-06-19T15:28:05.069Z,1.80
2018-06-19T15:30:34.732Z,2.20
2018-06-19T15:33:03.750Z,2.27
2018-06-19T15:35:32.526Z,2.10
2018-06-19T15:38:01.407Z,2.40
2018-06-19T15:40:30.192Z,2.63
2018-06-19T15:42:59.698Z,2.10
2018-06-19T15:45:28.903Z,2.20
2018-06-19T15:47:58.090Z,2.20
2018-06-19T15:50:28.260Z,1.40
2018-06-19T15:52:58.241Z,1.87
2018-06-19T15:55:27.831Z,1.73
2018-06-19T15:57:56.985Z,2.17
2018-06-19T16:00:28.701Z,1.77
2018-06-19T16:02:57.798Z,1.83
2018-06-19T16:05:27.606Z,1.87
2018-06-19T16:08:01.469Z,2.20
2018-06-19T16:10:31.341Z,1.80
2018-06-19T16:13:01.061Z,1.93
2018-06-19T16:15:31.243Z,2.10
2018-06-19T16:17:59.976Z,1.60
2018-06-19T16:20:29.400Z,1.90
2018-06-19T16:22:59.994Z,2.10
2018-06-19T16:25:29.899Z,1.97
2018-06-19T16:28:00.760Z,2.03
2018-06-19T16:30:30.870Z,2.37
2018-06-19T16:32:59.689Z,1.83
2018-06-19T16:35:28.984Z,2.00
2018-06-19T16:37:58.411Z,1.93
2018-06-19T16:40:27.866Z,1.97
2018-06-19T16:42:57.264Z,1.90
2018-06-19T16:45:26.404Z,1.97
2018-06-19T16:47:55.149Z,1.80
2018-06-19T16:50:25.122Z,2.47
2018-06-19T16:52:54.544Z,2.60
2018-06-19T16:55:23.367Z,1.90
2018-06-19T16:57:52.099Z,3.03
2018-06-19T17:00:20.883Z,2.40
2018-06-19T17:02:49.618Z,3.33
2018-06-19T17:05:19.084Z,2.30
2018-06-19T17:07:48.316Z,2.50
2018-06-19T17:10:17.907Z,2.43
2018-06-19T17:12:47.543Z,2.70
2018-06-19T17:15:17.570Z,2.27
2018-06-19T17:17:47.039Z,3.50
2018-06-19T17:20:15.766Z,1.80
2018-06-19T17:22:45.150Z,2.70
2018-06-19T17:25:13.874Z,2.27
2018-06-19T17:27:42.622Z,3.40
2018-06-19T17:30:12.314Z,2.30
2018-06-19T17:32:41.125Z,4.07
2018-06-19T17:35:09.880Z,2.27
2018-06-19T17:37:39.183Z,3.10
2018-06-19T17:40:07.960Z,2.00
2018-06-19T17:42:36.810Z,2.70
2018-06-19T17:45:05.778Z,2.23
2018-06-19T17:47:35.177Z,3.07
2018-06-19T17:50:05.192Z,2.40
2018-06-19T17:52:35.108Z,2.50
2018-06-19T17:55:03.974Z,2.30
2018-06-19T17:57:32.902Z,2.17
2018-06-19T18:00:01.877Z,2.27
2018-06-19T18:02:30.657Z,2.43
2018-06-19T18:04:59.539Z,2.40
2018-06-19T18:07:29.423Z,2.40
2018-06-19T18:09:59.386Z,2.17
2018-06-19T18:12:29.196Z,2.33
2018-06-19T18:14:59.230Z,2.17
2018-06-19T18:17:29.033Z,2.07
2018-06-19T18:19:57.957Z,2.87
2018-06-19T18:22:27.783Z,2.67
2018-06-19T18:24:56.772Z,3.20
2018-06-19T18:27:25.830Z,2.17
2018-06-19T18:29:55.142Z,2.60
2018-06-19T18:32:24.070Z,2.70
2018-06-19T18:34:52.813Z,2.80
2018-06-19T18:37:21.633Z,2.33
2018-06-19T18:39:50.369Z,2.70
2018-06-19T18:42:19.286Z,2.30
2018-06-19T18:44:48.094Z,3.77
2018-06-19T18:47:18.203Z,4.00
2018-06-19T18:49:47.526Z,3.20
2018-06-19T18:52:16.998Z,3.07
2018-06-19T18:54:45.734Z,2.20
2018-06-19T18:57:14.510Z,2.60
2018-06-19T18:59:43.305Z,2.30
2018-06-19T19:02:12.060Z,2.73
2018-06-19T19:04:40.898Z,2.10
2018-06-19T19:07:10.740Z,3.17
2018-06-19T19:09:44.662Z,2.60
2018-06-19T19:12:14.122Z,3.07
2018-06-19T19:15:48.067Z,2.73
2018-06-19T19:18:22.458Z,3.10
2018-06-19T19:20:52.034Z,2.30
2018-06-19T19:23:21.581Z,2.70
2018-06-19T19:25:50.302Z,2.10
2018-06-19T19:28:24.389Z,2.70
2018-06-19T19:30:54.100Z,2.10
2018-06-19T19:33:22.854Z,2.80
2018-06-19T19:35:51.796Z,2.30
2018-06-19T19:38:25.676Z,2.60
2018-06-19T19:40:54.735Z,2.33
2018-06-19T19:43:23.537Z,2.60
2018-06-19T19:45:53.093Z,2.60
2018-06-19T19:48:28.166Z,2.63
2018-06-19T19:50:58.369Z,2.43
2018-06-19T19:53:27.297Z,2.53
2018-06-19T19:56:01.457Z,2.03
2018-06-19T19:58:35.534Z,2.07
2018-06-19T20:01:04.691Z,3.00
2018-06-19T20:03:33.501Z,1.93
2018-06-19T20:06:03.164Z,2.50
2018-06-19T20:08:32.051Z,2.37
2018-06-19T20:11:01.882Z,2.10
2018-06-19T20:13:31.369Z,2.63
2018-06-19T20:16:00.851Z,2.03
2018-06-19T20:18:29.939Z,2.70
2018-06-19T20:20:59.828Z,2.67
2018-06-19T20:23:29.916Z,3.47
2018-06-19T20:25:59.000Z,2.37
2018-06-19T20:28:28.007Z,2.50
2018-06-19T20:30:57.651Z,2.23
2018-06-19T20:33:26.519Z,2.80
2018-06-19T20:35:55.294Z,2.83
2018-06-19T20:38:24.162Z,2.40
2018-06-19T20:40:52.952Z,2.17
2018-06-19T20:43:21.873Z,2.80
2018-06-19T20:45:51.504Z,2.20
2018-06-19T20:48:21.134Z,2.67
2018-06-19T20:50:50.405Z,2.70
2018-06-19T20:53:19.834Z,2.67
2018-06-19T20:55:48.627Z,2.40
2018-06-19T20:58:17.442Z,2.07
2018-06-19T21:00:46.386Z,2.73
2018-06-19T21:03:15.199Z,2.73
2018-06-19T21:05:44.850Z,2.40
2018-06-19T21:08:14.461Z,2.43
2018-06-19T21:10:44.455Z,3.30
2018-06-19T21:13:14.013Z,2.43
2018-06-19T21:15:43.722Z,3.13
2018-06-19T21:18:12.482Z,2.20
2018-06-19T21:20:41.270Z,2.83
2018-06-19T21:23:10.696Z,2.63
2018-06-19T21:25:39.490Z,3.30
2018-06-19T21:28:08.301Z,2.53
2018-06-19T21:30:37.530Z,3.43
2018-06-19T21:33:06.403Z,2.70
2018-06-19T21:35:35.180Z,2.90
2018-06-19T21:38:04.255Z,2.80
2018-06-19T21:40:33.175Z,2.50
2018-06-19T21:43:02.188Z,2.73
2018-06-19T21:45:31.308Z,2.93
2018-06-19T21:48:01.344Z,2.77
2018-06-19T21:50:30.854Z,2.77
2018-06-19T21:53:00.802Z,2.93
2018-06-19T21:55:29.942Z,2.50
2018-06-19T21:57:59.014Z,3.30
2018-06-19T22:00:27.888Z,2.97
2018-06-19T22:02:56.766Z,2.70
2018-06-19T22:05:26.908Z,3.00
2018-06-19T22:07:55.679Z,2.90
2018-06-19T22:10:25.019Z,2.63
2018-06-19T22:12:54.738Z,2.30
2018-06-19T22:15:24.546Z,3.30
2018-06-19T22:17:53.291Z,2.40
2018-06-19T22:20:22.054Z,2.90
2018-06-19T22:22:52.263Z,2.23
2018-06-19T22:25:21.008Z,3.00
2018-06-19T22:27:50.002Z,2.97
2018-06-19T22:30:19.662Z,2.83
2018-06-19T22:32:48.389Z,2.97
2018-06-19T22:35:17.138Z,2.80
2018-06-19T22:37:45.895Z,2.70
2018-06-19T22:40:14.662Z,2.30
2018-06-19T22:42:43.525Z,2.67
2018-06-19T22:45:13.354Z,2.37
2018-06-19T22:47:42.990Z,2.17
2018-06-19T22:50:12.402Z,2.37
2018-06-19T22:52:42.001Z,2.83
2018-06-19T22:55:10.772Z,3.30
2018-06-19T22:57:39.546Z,2.27
2018-06-19T23:00:08.815Z,2.53
2018-06-19T23:02:38.418Z,3.47
2018-06-19T23:05:07.210Z,2.13
2018-06-19T23:07:36.814Z,2.97
2018-06-19T23:10:06.467Z,2.37
2018-06-19T23:12:36.102Z,3.37
2018-06-19T23:15:05.742Z,2.73
2018-06-19T23:17:34.867Z,3.20
2018-06-19T23:20:03.752Z,2.70
2018-06-19T23:22:33.666Z,3.00
2018-06-19T23:25:02.467Z,2.07
2018-06-19T23:27:31.988Z,3.53
2018-06-19T23:30:01.974Z,2.40
2018-06-19T23:32:31.302Z,4.27
2018-06-19T23:35:00.737Z,2.43
2018-06-19T23:37:29.803Z,2.90
2018-06-19T23:39:58.709Z,2.83
2018-06-19T23:42:27.720Z,3.43
2018-06-19T23:44:56.573Z,3.03
2018-06-19T23:47:26.140Z,3.20
2018-06-19T23:49:55.889Z,2.70
2018-06-19T23:52:25.594Z,4.17
2018-06-19T23:54:54.337Z,2.30
2018-06-19T23:57:23.189Z,4.07
2018-06-19T23:59:52.898Z,2.80
